Time;durP1;ratioP1;P1;durP2;ratioP2;P2;SDS_P1;SDS_P2;PMS_P1;PMS_P2;Temp;Humidity;BMP_temperature;BMP_pressure;BME280_temperature;BME280_humidity;BME280_pressure;Samples;Min_cycle;Max_cycle;Signal;HPM_P1;HPM_P2
2021/06/05 00:02:25;;;;;;;26.37;13.53;;;;;;;;;;5032689;28;20037;-65
2021/06/05 00:04:56;;;;;;;27.10;12.70;;;;;;;;;;5033305;28;20021;-65
2021/06/05 00:07:22;;;;;;;22.97;12.07;;;;;;;;;;5033056;28;20109;-65
2021/06/05 00:09:47;;;;;;;27.20;12.80;;;;;;;;;;5033420;28;20438;-65
2021/06/05 00:12:15;;;;;;;25.73;13.47;;;;;;;;;;5033633;28;20029;-65
2021/06/05 00:14:40;;;;;;;23.33;13.13;;;;;;;;;;5053240;28;20033;-65
2021/06/05 00:17:06;;;;;;;25.57;13.83;;;;;;;;;;5040359;28;20386;-65
2021/06/05 00:19:31;;;;;;;21.53;12.30;;;;;;;;;;5032952;28;20462;-65
2021/06/05 00:21:56;;;;;;;25.77;13.47;;;;;;;;;;5032642;28;20021;-65
2021/06/05 00:24:22;;;;;;;23.93;12.33;;;;;;;;;;5033014;28;20032;-65
2021/06/05 00:26:48;;;;;;;24.20;12.87;;;;;;;;;;5032794;28;20029;-65
2021/06/05 00:29:13;;;;;;;22.03;12.50;;;;;;;;;;5032942;28;20028;-65
2021/06/05 00:31:38;;;;;;;22.07;12.80;;;;;;;;;;5032254;28;20025;-65
2021/06/05 00:34:04;;;;;;;21.93;12.10;;;;;;;;;;5032387;28;20025;-65
2021/06/05 00:36:29;;;;;;;20.60;12.10;;;;;;;;;;5032264;28;20041;-65
2021/06/05 00:38:55;;;;;;;21.50;12.47;;;;;;;;;;5032829;28;20040;-65
2021/06/05 00:41:21;;;;;;;22.03;12.13;;;;;;;;;;5032403;28;20036;-65
2021/06/05 00:43:51;;;;;;;20.73;11.73;;;;;;;;;;5032755;28;20029;-65
2021/06/05 00:46:17;;;;;;;22.23;11.80;;;;;;;;;;5032088;28;20111;-65
2021/06/05 00:48:43;;;;;;;21.80;12.33;;;;;;;;;;5032698;28;20476;-65
2021/06/05 00:51:09;;;;;;;19.83;11.87;;;;;;;;;;5032034;28;20025;-65
2021/06/05 00:53:34;;;;;;;21.27;12.17;;;;;;;;;;5032532;28;20017;-65
2021/06/05 00:56:02;;;;;;;20.00;11.53;;;;;;;;;;5032013;28;20047;-65
2021/06/05 00:58:28;;;;;;;20.30;11.53;;;;;;;;;;5032198;28;20017;-65
2021/06/05 01:00:56;;;;;;;21.83;11.60;;;;;;;;;;5030887;28;20101;-65
2021/06/05 01:03:21;;;;;;;21.13;11.97;;;;;;;;;;5031677;28;20445;-65
2021/06/05 01:05:48;;;;;;;18.40;10.63;;;;;;;;;;5032133;28;20025;-65
2021/06/05 01:08:23;;;;;;;20.47;10.57;;;;;;;;;;5032091;28;20017;-65
2021/06/05 01:10:51;;;;;;;19.10;11.37;;;;;;;;;;5032035;28;20025;-65
2021/06/05 01:13:19;;;;;;;19.30;10.40;;;;;;;;;;5032031;28;20017;-65
2021/06/05 01:15:49;;;;;;;18.40;11.00;;;;;;;;;;5031876;28;20426;-65
2021/06/05 01:18:30;;;;;;;17.83;11.40;;;;;;;;;;5031844;28;20052;-65
2021/06/05 01:21:22;;;;;;;18.93;11.33;;;;;;;;;;5031826;28;20100;-65
2021/06/05 01:24:06;;;;;;;19.23;10.70;;;;;;;;;;5032658;28;20108;-65
2021/06/05 01:26:33;;;;;;;20.77;11.87;;;;;;;;;;5043724;28;20303;-65
2021/06/05 01:29:02;;;;;;;19.87;11.77;;;;;;;;;;5031686;28;20021;-65
2021/06/05 01:31:33;;;;;;;20.80;12.03;;;;;;;;;;5031742;28;20470;-65
2021/06/05 01:33:58;;;;;;;20.93;11.73;;;;;;;;;;5031585;28;20059;-65
2021/06/05 01:36:24;;;;;;;18.83;9.93;;;;;;;;;;5031334;28;20049;-65
2021/06/05 01:38:51;;;;;;;18.97;10.17;;;;;;;;;;5032010;28;20067;-65
2021/06/05 01:41:17;;;;;;;20.40;10.20;;;;;;;;;;5031587;28;20029;-65
2021/06/05 01:43:44;;;;;;;18.30;11.03;;;;;;;;;;5031869;28;20025;-65
2021/06/05 01:46:10;;;;;;;19.03;11.10;;;;;;;;;;5032982;28;20028;-65
2021/06/05 01:48:36;;;;;;;18.63;11.57;;;;;;;;;;5031811;28;20028;-65
2021/06/05 01:51:07;;;;;;;17.47;10.50;;;;;;;;;;5032900;28;20363;-65
2021/06/05 01:53:35;;;;;;;15.33;9.40;;;;;;;;;;5051424;28;20036;-65
2021/06/05 01:56:22;;;;;;;17.00;9.97;;;;;;;;;;5047833;28;20508;-65
2021/06/05 01:58:49;;;;;;;17.60;9.47;;;;;;;;;;5031395;28;20020;-65
2021/06/05 02:01:14;;;;;;;19.93;9.93;;;;;;;;;;5031434;28;20021;-65
2021/06/05 02:03:40;;;;;;;19.40;10.27;;;;;;;;;;5031363;28;20133;-65
2021/06/05 02:06:05;;;;;;;15.33;9.70;;;;;;;;;;5031473;28;20026;-65
2021/06/05 02:08:31;;;;;;;15.80;9.40;;;;;;;;;;5031381;28;20075;-65
2021/06/05 02:11:01;;;;;;;16.43;9.10;;;;;;;;;;5031554;28;20041;-65
2021/06/05 02:13:29;;;;;;;16.87;9.03;;;;;;;;;;5035531;28;20470;-65
2021/06/05 02:15:59;;;;;;;15.70;8.33;;;;;;;;;;5035138;28;20433;-65
2021/06/05 02:18:25;;;;;;;14.67;8.30;;;;;;;;;;5034932;28;20105;-65
2021/06/05 02:20:59;;;;;;;14.77;8.20;;;;;;;;;;5034796;28;20021;-65
2021/06/05 02:23:28;;;;;;;13.27;8.67;;;;;;;;;;5035413;28;20024;-65
2021/06/05 02:25:55;;;;;;;11.83;7.87;;;;;;;;;;5052968;28;20535;-65
2021/06/05 02:28:23;;;;;;;13.77;7.67;;;;;;;;;;5034868;28;20049;-65
2021/06/05 02:30:49;;;;;;;11.70;7.57;;;;;;;;;;5034280;28;20036;-65
2021/06/05 02:33:14;;;;;;;12.77;7.73;;;;;;;;;;5034197;28;20030;-65
2021/06/05 02:35:41;;;;;;;13.70;8.63;;;;;;;;;;5033854;28;20425;-65
2021/06/05 02:38:10;;;;;;;15.53;8.87;;;;;;;;;;5049089;28;20095;-65
2021/06/05 02:40:36;;;;;;;15.10;8.40;;;;;;;;;;5053930;28;20021;-65
2021/06/05 02:43:04;;;;;;;14.60;8.07;;;;;;;;;;5033950;28;20053;-65
2021/06/05 02:45:37;;;;;;;12.80;8.03;;;;;;;;;;5034944;28;20044;-65
2021/06/05 02:48:03;;;;;;;12.50;7.80;;;;;;;;;;5036911;28;20029;-65
2021/06/05 02:50:33;;;;;;;15.73;8.73;;;;;;;;;;5034905;28;20032;-65
2021/06/05 02:52:58;;;;;;;14.20;8.37;;;;;;;;;;5034130;28;20028;-65
2021/06/05 02:55:24;;;;;;;12.47;7.70;;;;;;;;;;5034556;28;20021;-65
2021/06/05 02:57:50;;;;;;;13.37;7.87;;;;;;;;;;5034505;28;20033;-65
2021/06/05 03:00:27;;;;;;;11.93;7.50;;;;;;;;;;5034632;28;20014;-65
2021/06/05 03:02:52;;;;;;;16.63;7.63;;;;;;;;;;5033759;28;20046;-65
2021/06/05 03:05:18;;;;;;;13.93;8.07;;;;;;;;;;5034482;28;20022;-65
2021/06/05 03:07:43;;;;;;;11.77;7.70;;;;;;;;;;5033990;28;20431;-64
2021/06/05 03:10:09;;;;;;;12.87;8.00;;;;;;;;;;5034256;28;20023;-65
2021/06/05 03:12:34;;;;;;;14.27;8.10;;;;;;;;;;5033787;28;20025;-65
2021/06/05 03:15:00;;;;;;;13.10;8.03;;;;;;;;;;5033941;28;20084;-65
2021/06/05 03:17:28;;;;;;;14.10;8.40;;;;;;;;;;5033777;28;20025;-65
2021/06/05 03:19:53;;;;;;;16.50;7.90;;;;;;;;;;5034375;28;20017;-65
2021/06/05 03:22:19;;;;;;;15.30;8.40;;;;;;;;;;5033026;28;20029;-65
2021/06/05 03:24:44;;;;;;;16.93;8.40;;;;;;;;;;5033467;28;20057;-65
2021/06/05 03:27:09;;;;;;;13.83;8.30;;;;;;;;;;5033813;28;20130;-65
2021/06/05 03:29:38;;;;;;;14.47;8.40;;;;;;;;;;5033621;28;20414;-65
2021/06/05 03:32:03;;;;;;;16.87;10.00;;;;;;;;;;5033439;28;20033;-65
2021/06/05 03:34:30;;;;;;;16.97;9.47;;;;;;;;;;5033786;28;20021;-67
2021/06/05 03:36:55;;;;;;;14.30;9.10;;;;;;;;;;5033375;28;20021;-65
2021/06/05 03:39:20;;;;;;;15.47;9.57;;;;;;;;;;5033838;28;20014;-65
2021/06/05 03:41:46;;;;;;;15.97;9.33;;;;;;;;;;5033396;28;20034;-65
2021/06/05 03:44:11;;;;;;;14.87;8.67;;;;;;;;;;5033447;28;20056;-65
2021/06/05 03:46:37;;;;;;;18.87;9.77;;;;;;;;;;5035514;28;20064;-65
2021/06/05 03:49:03;;;;;;;14.37;9.00;;;;;;;;;;5033677;28;20688;-65
2021/06/05 03:51:28;;;;;;;16.50;9.03;;;;;;;;;;5033059;28;20027;-65
2021/06/05 03:53:54;;;;;;;19.13;9.07;;;;;;;;;;5033598;28;20033;-65
2021/06/05 03:56:19;;;;;;;14.67;9.40;;;;;;;;;;5033274;28;20402;-65
2021/06/05 03:58:45;;;;;;;18.60;10.00;;;;;;;;;;5033225;28;20025;-65
2021/06/05 04:01:12;;;;;;;15.17;8.70;;;;;;;;;;5033115;28;20025;-65
2021/06/05 04:03:38;;;;;;;18.00;10.13;;;;;;;;;;5032926;28;20081;-65
2021/06/05 04:06:03;;;;;;;19.00;10.33;;;;;;;;;;5032947;28;20038;-65
2021/06/05 04:08:29;;;;;;;16.63;9.27;;;;;;;;;;5033335;28;20133;-65
2021/06/05 04:10:54;;;;;;;19.53;10.17;;;;;;;;;;5032978;28;20037;-65
2021/06/05 04:13:20;;;;;;;20.97;10.40;;;;;;;;;;5032840;28;20036;-65
2021/06/05 04:15:45;;;;;;;21.93;11.13;;;;;;;;;;5032947;28;20033;-65
2021/06/05 04:18:13;;;;;;;19.07;10.83;;;;;;;;;;5033152;28;20335;-64
2021/06/05 04:20:39;;;;;;;20.43;10.80;;;;;;;;;;5032677;28;20030;-64
2021/06/05 04:23:05;;;;;;;20.20;10.93;;;;;;;;;;5032736;28;20029;-64
2021/06/05 04:25:31;;;;;;;21.07;11.30;;;;;;;;;;5032987;28;20412;-64
2021/06/05 04:27:57;;;;;;;28.17;11.63;;;;;;;;;;5032808;28;20045;-64
2021/06/05 04:30:23;;;;;;;24.23;11.47;;;;;;;;;;5032789;28;20354;-64
2021/06/05 04:32:49;;;;;;;23.93;11.67;;;;;;;;;;5032693;28;20450;-64
2021/06/05 04:35:15;;;;;;;27.47;11.60;;;;;;;;;;5032067;28;20140;-64
2021/06/05 04:37:41;;;;;;;22.53;11.63;;;;;;;;;;5032553;28;20091;-64
2021/06/05 04:40:06;;;;;;;25.17;12.50;;;;;;;;;;5032698;28;20029;-64
2021/06/05 04:42:32;;;;;;;33.23;12.30;;;;;;;;;;5032385;28;20031;-64
2021/06/05 04:44:57;;;;;;;25.20;11.07;;;;;;;;;;5032579;28;20029;-64
2021/06/05 04:47:22;;;;;;;23.77;11.40;;;;;;;;;;5034688;28;20502;-64
2021/06/05 04:49:48;;;;;;;22.97;12.20;;;;;;;;;;5032661;28;20533;-64
2021/06/05 04:52:13;;;;;;;27.63;12.93;;;;;;;;;;5032194;28;20108;-64
2021/06/05 04:54:38;;;;;;;26.50;12.80;;;;;;;;;;5032442;28;20045;-64
2021/06/05 04:57:04;;;;;;;24.07;12.30;;;;;;;;;;5032292;28;20036;-64
2021/06/05 04:59:29;;;;;;;23.67;12.37;;;;;;;;;;5032766;28;20032;-64
2021/06/05 05:01:56;;;;;;;23.80;12.40;;;;;;;;;;5031894;28;20033;-64
2021/06/05 05:04:21;;;;;;;28.07;13.63;;;;;;;;;;5031789;28;20490;-64
2021/06/05 05:06:47;;;;;;;27.40;12.80;;;;;;;;;;5032802;28;20032;-64
2021/06/05 05:09:13;;;;;;;29.67;14.47;;;;;;;;;;5031753;28;20030;-64
2021/06/05 05:11:38;;;;;;;26.63;12.80;;;;;;;;;;5014254;28;20037;-64
2021/06/05 05:14:04;;;;;;;25.37;13.73;;;;;;;;;;5031805;28;20657;-64
2021/06/05 05:16:29;;;;;;;26.83;13.20;;;;;;;;;;5031513;28;20100;-64
2021/06/05 05:18:56;;;;;;;27.83;14.03;;;;;;;;;;5031817;28;20018;-64
2021/06/05 05:21:22;;;;;;;25.40;13.33;;;;;;;;;;5035098;28;20033;-64
2021/06/05 05:23:48;;;;;;;28.43;13.73;;;;;;;;;;5031800;28;20026;-64
2021/06/05 05:26:14;;;;;;;26.63;13.57;;;;;;;;;;5035392;28;20465;-64
2021/06/05 05:28:40;;;;;;;27.03;13.43;;;;;;;;;;5031685;28;20057;-64
2021/06/05 05:31:07;;;;;;;23.83;12.20;;;;;;;;;;5031398;28;20116;-64
2021/06/05 05:33:39;;;;;;;20.70;11.50;;;;;;;;;;5031911;28;20466;-64
2021/06/05 05:36:10;;;;;;;23.40;11.93;;;;;;;;;;5031396;28;20032;-64
2021/06/05 05:38:37;;;;;;;23.10;12.27;;;;;;;;;;5032020;28;20040;-64
2021/06/05 05:41:03;;;;;;;23.97;13.23;;;;;;;;;;5031427;28;20052;-64
2021/06/05 05:43:28;;;;;;;24.20;12.50;;;;;;;;;;5031668;28;20414;-64
2021/06/05 05:45:53;;;;;;;26.17;13.83;;;;;;;;;;5033446;28;20026;-64
2021/06/05 05:48:19;;;;;;;21.97;11.73;;;;;;;;;;5035882;28;20051;-64
2021/06/05 05:50:45;;;;;;;19.57;11.23;;;;;;;;;;5035666;28;20661;-64
2021/06/05 05:53:10;;;;;;;17.80;10.70;;;;;;;;;;5035755;28;20428;-64
2021/06/05 05:55:35;;;;;;;18.60;11.17;;;;;;;;;;5035284;28;20029;-64
2021/06/05 05:58:08;;;;;;;17.63;10.63;;;;;;;;;;5035691;28;20021;-64
2021/06/05 06:00:35;;;;;;;20.27;11.23;;;;;;;;;;5035291;28;20029;-64
2021/06/05 06:03:00;;;;;;;17.00;9.83;;;;;;;;;;5035185;28;20107;-64
2021/06/05 06:05:26;;;;;;;15.55;9.90;;;;;;;;;;5035354;28;20037;-64
2021/06/05 06:07:51;;;;;;;16.58;10.05;;;;;;;;;;5034362;28;20025;-64
2021/06/05 06:10:17;;;;;;;14.90;9.60;;;;;;;;;;5035029;28;20029;-64
2021/06/05 06:12:42;;;;;;;23.45;10.60;;;;;;;;;;5034789;28;20528;-64
2021/06/05 06:15:12;;;;;;;18.77;10.35;;;;;;;;;;5035103;28;20033;-64
2021/06/05 06:17:38;;;;;;;18.23;11.10;;;;;;;;;;5035141;28;20450;-64
2021/06/05 06:20:04;;;;;;;17.25;10.25;;;;;;;;;;5049239;28;20025;-64
2021/06/05 06:22:29;;;;;;;14.90;9.13;;;;;;;;;;5039671;28;20013;-64
2021/06/05 06:24:55;;;;;;;13.75;8.88;;;;;;;;;;5035253;28;20474;-65
2021/06/05 06:27:20;;;;;;;15.75;9.38;;;;;;;;;;5035017;28;20032;-65
2021/06/05 06:29:48;;;;;;;15.02;8.70;;;;;;;;;;5034753;28;20022;-65
2021/06/05 06:32:14;;;;;;;13.75;8.23;;;;;;;;;;5034893;28;20024;-65
2021/06/05 06:34:39;;;;;;;13.23;8.27;;;;;;;;;;5034616;28;20029;-65
2021/06/05 06:37:06;;;;;;;13.60;8.88;;;;;;;;;;5034788;28;20020;-65
2021/06/05 06:39:35;;;;;;;13.18;8.43;;;;;;;;;;5034615;28;20071;-65
2021/06/05 06:42:01;;;;;;;14.60;8.70;;;;;;;;;;5034606;28;20063;-65
2021/06/05 06:44:27;;;;;;;13.27;7.68;;;;;;;;;;5034797;28;20445;-66
2021/06/05 06:46:52;;;;;;;11.95;7.80;;;;;;;;;;5036324;28;20451;-66
2021/06/05 06:49:19;;;;;;;14.55;7.80;;;;;;;;;;5034820;28;20025;-66
2021/06/05 06:51:44;;;;;;;11.98;7.53;;;;;;;;;;5034442;28;20013;-66
2021/06/05 06:54:10;;;;;;;14.20;8.02;;;;;;;;;;5034604;28;20484;-66
2021/06/05 06:56:35;;;;;;;12.00;7.72;;;;;;;;;;5034396;28;20024;-66
2021/06/05 06:59:02;;;;;;;13.50;7.60;;;;;;;;;;5034593;28;20355;-67
2021/06/05 07:01:27;;;;;;;14.48;7.68;;;;;;;;;;5033994;28;20049;-66
2021/06/05 07:03:52;;;;;;;13.88;8.32;;;;;;;;;;5033906;28;20151;-66
2021/06/05 07:06:18;;;;;;;14.50;8.85;;;;;;;;;;5034166;28;20029;-66
2021/06/05 07:08:44;;;;;;;12.98;8.32;;;;;;;;;;5034479;28;20143;-65
2021/06/05 07:11:11;;;;;;;14.90;9.27;;;;;;;;;;5033810;28;20510;-65
2021/06/05 07:13:37;;;;;;;13.65;9.15;;;;;;;;;;5034406;28;20048;-65
2021/06/05 07:16:02;;;;;;;15.80;8.98;;;;;;;;;;5033831;28;20394;-65
2021/06/05 07:18:29;;;;;;;14.20;9.43;;;;;;;;;;5034085;28;20025;-65
2021/06/05 07:20:55;;;;;;;16.63;10.15;;;;;;;;;;5034107;28;20694;-65
2021/06/05 07:23:22;;;;;;;15.27;9.93;;;;;;;;;;5033647;28;20034;-65
2021/06/05 07:25:48;;;;;;;16.13;10.48;;;;;;;;;;5034019;28;20030;-65
2021/06/05 07:28:27;;;;;;;18.48;10.73;;;;;;;;;;5034140;28;20453;-65
2021/06/05 07:30:53;;;;;;;20.42;11.02;;;;;;;;;;5033751;28;20025;-65
2021/06/05 07:33:19;;;;;;;16.92;10.93;;;;;;;;;;5033862;28;20091;-65
2021/06/05 07:35:44;;;;;;;20.40;11.60;;;;;;;;;;5033655;28;20066;-65
2021/06/05 07:38:11;;;;;;;18.50;11.43;;;;;;;;;;5033380;28;20528;-65
2021/06/05 07:40:36;;;;;;;18.33;11.68;;;;;;;;;;5033728;28;20479;-65
2021/06/05 07:43:02;;;;;;;17.60;11.57;;;;;;;;;;5033431;28;20045;-65
2021/06/05 07:45:27;;;;;;;18.85;11.90;;;;;;;;;;5033741;28;20076;-65
2021/06/05 07:47:53;;;;;;;18.13;10.55;;;;;;;;;;5035657;28;20076;-67
2021/06/05 07:50:18;;;;;;;14.73;9.45;;;;;;;;;;5033635;28;20104;-68
2021/06/05 07:52:43;;;;;;;12.40;8.13;;;;;;;;;;5033238;28;20113;-72
2021/06/05 07:55:09;;;;;;;12.63;8.13;;;;;;;;;;5033616;28;20370;-74
2021/06/05 07:57:34;;;;;;;11.25;7.43;;;;;;;;;;5033287;28;20470;-71
2021/06/05 08:00:00;;;;;;;10.35;6.88;;;;;;;;;;5033455;28;20025;-68
2021/06/05 08:02:25;;;;;;;10.80;6.95;;;;;;;;;;5032869;28;20099;-67
2021/06/05 08:04:50;;;;;;;12.82;7.43;;;;;;;;;;5040542;28;20060;-66
2021/06/05 08:07:16;;;;;;;11.27;7.72;;;;;;;;;;5039191;28;20033;-65
2021/06/05 08:09:42;;;;;;;13.00;7.70;;;;;;;;;;5032776;28;20537;-65
2021/06/05 08:12:08;;;;;;;12.45;8.30;;;;;;;;;;5032922;28;20104;-65
2021/06/05 08:14:34;;;;;;;14.13;8.55;;;;;;;;;;5033174;28;20091;-65
2021/06/05 08:16:59;;;;;;;13.48;8.05;;;;;;;;;;5032803;28;20520;-66
2021/06/05 08:19:24;;;;;;;11.70;7.90;;;;;;;;;;5033172;28;20463;-66
2021/06/05 08:21:50;;;;;;;11.93;7.70;;;;;;;;;;5032579;28;20033;-67
2021/06/05 08:24:16;;;;;;;11.25;7.60;;;;;;;;;;5032973;28;20406;-70
2021/06/05 08:26:42;;;;;;;10.32;6.53;;;;;;;;;;5037501;28;20025;-71
2021/06/05 08:29:08;;;;;;;10.75;6.82;;;;;;;;;;5032640;28;20031;-70
2021/06/05 08:31:34;;;;;;;10.70;7.00;;;;;;;;;;5032531;28;20073;-69
2021/06/05 08:33:59;;;;;;;12.00;7.95;;;;;;;;;;5032711;28;20021;-68
2021/06/05 08:36:25;;;;;;;12.77;8.18;;;;;;;;;;5032323;28;20466;-68
2021/06/05 08:38:50;;;;;;;11.18;8.27;;;;;;;;;;5032842;28;20465;-68
2021/06/05 08:41:22;;;;;;;12.15;8.40;;;;;;;;;;5032104;28;20458;-68
2021/06/05 08:44:11;;;;;;;15.20;8.80;;;;;;;;;;5032690;28;20013;-68
2021/06/05 08:46:39;;;;;;;12.52;8.25;;;;;;;;;;5004727;28;20040;-67
2021/06/05 08:49:06;;;;;;;12.43;8.57;;;;;;;;;;5032346;28;20021;-67
2021/06/05 08:51:58;;;;;;;15.55;8.70;;;;;;;;;;5031886;28;20112;-68
2021/06/05 08:54:47;;;;;;;12.60;8.75;;;;;;;;;;5029269;28;20033;-67
2021/06/05 08:57:31;;;;;;;15.77;8.85;;;;;;;;;;5000723;28;20035;-66
2021/06/05 08:59:58;;;;;;;12.32;8.95;;;;;;;;;;5021606;28;20108;-66
2021/06/05 09:02:25;;;;;;;12.90;9.15;;;;;;;;;;5031896;28;20084;-65
2021/06/05 09:04:52;;;;;;;13.93;9.80;;;;;;;;;;5032248;28;20103;-66
2021/06/05 09:07:17;;;;;;;13.25;9.13;;;;;;;;;;5031972;28;20025;-66
2021/06/05 09:09:45;;;;;;;13.05;8.70;;;;;;;;;;5031858;28;20631;-66
2021/06/05 09:12:11;;;;;;;13.80;8.90;;;;;;;;;;5031998;28;20425;-68
2021/06/05 09:14:36;;;;;;;13.65;9.07;;;;;;;;;;5032275;28;20029;-68
2021/06/05 09:17:12;;;;;;;13.10;9.40;;;;;;;;;;5031438;28;20365;-67
2021/06/05 09:19:37;;;;;;;13.15;9.43;;;;;;;;;;5031752;28;20020;-69
2021/06/05 09:22:20;;;;;;;15.20;10.27;;;;;;;;;;5030858;28;20018;-72
2021/06/05 09:24:47;;;;;;;15.07;9.82;;;;;;;;;;5032143;28;20013;-67
2021/06/05 09:27:34;;;;;;;13.43;9.57;;;;;;;;;;5031127;28;20021;-68
2021/06/05 09:30:19;;;;;;;13.55;9.98;;;;;;;;;;5031530;28;20108;-69
2021/06/05 09:32:55;;;;;;;12.85;9.30;;;;;;;;;;5024040;28;20541;-68
2021/06/05 09:35:24;;;;;;;11.57;8.30;;;;;;;;;;5031635;28;20068;-66
2021/06/05 09:37:52;;;;;;;14.63;8.65;;;;;;;;;;5031634;28;20462;-66
2021/06/05 09:40:35;;;;;;;11.73;8.52;;;;;;;;;;5031780;28;20022;-66
2021/06/05 09:43:17;;;;;;;14.50;8.40;;;;;;;;;;5031443;28;20052;-65
2021/06/05 09:45:44;;;;;;;12.90;9.35;;;;;;;;;;5031511;28;20052;-65
2021/06/05 09:48:13;;;;;;;13.05;9.05;;;;;;;;;;5032686;28;20064;-65
2021/06/05 09:50:42;;;;;;;14.85;9.95;;;;;;;;;;5031642;28;20026;-66
2021/06/05 09:53:37;;;;;;;14.63;10.63;;;;;;;;;;5031192;28;20030;-67
2021/06/05 09:56:31;;;;;;;13.50;9.80;;;;;;;;;;4966430;28;20074;-67
2021/06/05 09:59:23;;;;;;;16.70;11.30;;;;;;;;;;4956292;28;20046;-68
2021/06/05 10:01:56;;;;;;;14.05;10.35;;;;;;;;;;4959305;28;20039;-68
2021/06/05 10:04:22;;;;;;;15.40;10.80;;;;;;;;;;4968415;28;20057;-66
2021/06/05 10:06:52;;;;;;;14.85;10.20;;;;;;;;;;4960657;28;20094;-67
2021/06/05 10:09:30;;;;;;;15.00;9.80;;;;;;;;;;4969313;28;20514;-67
2021/06/05 10:12:00;;;;;;;14.63;9.85;;;;;;;;;;4959660;28;20028;-66
2021/06/05 10:14:32;;;;;;;14.65;10.18;;;;;;;;;;4970105;28;20050;-66
2021/06/05 10:17:01;;;;;;;14.55;10.85;;;;;;;;;;4960590;28;20640;-66
2021/06/05 10:19:46;;;;;;;16.45;10.57;;;;;;;;;;4969989;28;20031;-67
2021/06/05 10:22:12;;;;;;;16.05;10.70;;;;;;;;;;4961125;28;20039;-68
2021/06/05 10:24:40;;;;;;;12.80;9.80;;;;;;;;;;4969917;28;20102;-69
2021/06/05 10:27:07;;;;;;;14.43;10.35;;;;;;;;;;4962195;28;20047;-67
2021/06/05 10:29:36;;;;;;;13.50;10.35;;;;;;;;;;4968599;28;20067;-67
2021/06/05 10:32:05;;;;;;;14.70;10.73;;;;;;;;;;4976872;28;20029;-67
2021/06/05 10:34:32;;;;;;;15.30;11.65;;;;;;;;;;5034686;28;20109;-67
2021/06/05 10:36:58;;;;;;;17.13;12.23;;;;;;;;;;5025676;28;20026;-67
2021/06/05 10:39:27;;;;;;;18.27;12.73;;;;;;;;;;5035007;28;20029;-66
2021/06/05 10:42:00;;;;;;;18.60;13.05;;;;;;;;;;5034720;28;20462;-66
2021/06/05 10:44:26;;;;;;;17.95;12.27;;;;;;;;;;5034567;28;20096;-67
2021/06/05 10:47:03;;;;;;;17.67;12.00;;;;;;;;;;5036701;28;20101;-67
2021/06/05 10:49:31;;;;;;;17.13;12.60;;;;;;;;;;5034466;28;20112;-66
2021/06/05 10:52:04;;;;;;;19.95;12.77;;;;;;;;;;5034427;28;20032;-66
2021/06/05 10:54:31;;;;;;;19.48;13.50;;;;;;;;;;5034577;28;20025;-66
2021/06/05 10:57:23;;;;;;;19.02;13.52;;;;;;;;;;5033977;28;20022;-66
2021/06/05 10:59:53;;;;;;;18.33;13.10;;;;;;;;;;5010784;28;20121;-67
2021/06/05 11:02:52;;;;;;;19.48;13.50;;;;;;;;;;5034145;28;20506;-67
2021/06/05 11:05:39;;;;;;;18.63;12.85;;;;;;;;;;5001123;28;20085;-67
2021/06/05 11:08:27;;;;;;;18.40;12.93;;;;;;;;;;5034010;28;20034;-68
2021/06/05 11:10:55;;;;;;;18.48;13.00;;;;;;;;;;4970240;28;20041;-68
2021/06/05 11:13:52;;;;;;;19.25;12.80;;;;;;;;;;4964726;28;20035;-68
2021/06/05 11:16:19;;;;;;;16.90;12.02;;;;;;;;;;4956325;28;20082;-67
2021/06/05 11:19:04;;;;;;;17.98;13.20;;;;;;;;;;4968789;28;20043;-67
2021/06/05 11:21:50;;;;;;;21.38;13.65;;;;;;;;;;4948177;29;20378;-66
2021/06/05 11:24:17;;;;;;;20.05;13.80;;;;;;;;;;4940451;29;20062;-66
2021/06/05 11:26:48;;;;;;;23.42;14.18;;;;;;;;;;4952835;29;20027;-65
2021/06/05 11:29:40;;;;;;;20.23;14.20;;;;;;;;;;4953293;29;20027;-65
2021/06/05 11:32:37;;;;;;;22.10;14.30;;;;;;;;;;4944738;29;20039;-65
2021/06/05 11:35:09;;;;;;;19.65;14.63;;;;;;;;;;4905794;29;20095;-66
2021/06/05 11:37:34;;;;;;;;;;;;;;;;;;4946612;29;20035;-66
2021/06/05 11:40:01;;;;;;;17.23;12.20;;;;;;;;;;4934057;29;19911;-66
2021/06/05 11:42:46;;;;;;;19.38;13.35;;;;;;;;;;4948040;29;20739;-66
2021/06/05 11:45:33;;;;;;;17.52;12.85;;;;;;;;;;4952830;28;20031;-66
2021/06/05 11:47:58;;;;;;;18.92;13.57;;;;;;;;;;4989984;28;20026;-66
2021/06/05 11:50:29;;;;;;;19.38;13.77;;;;;;;;;;4991517;28;20434;-66
2021/06/05 11:52:56;;;;;;;20.83;14.87;;;;;;;;;;4980354;28;20495;-66
2021/06/05 11:55:48;;;;;;;19.10;13.30;;;;;;;;;;4991378;28;20178;-65
2021/06/05 11:58:23;;;;;;;21.27;13.07;;;;;;;;;;5022771;28;20441;-66
2021/06/05 12:01:07;;;;;;;20.02;13.30;;;;;;;;;;5033239;28;20343;-65
2021/06/05 12:03:52;;;;;;;18.88;13.82;;;;;;;;;;5032898;28;20045;-65
2021/06/05 12:06:32;;;;;;;21.58;14.30;;;;;;;;;;5022506;28;20037;-64
2021/06/05 12:09:10;;;;;;;24.58;13.93;;;;;;;;;;5020234;28;20344;-65
2021/06/05 12:11:44;;;;;;;22.77;14.95;;;;;;;;;;5032907;28;20025;-64
2021/06/05 12:14:16;;;;;;;19.45;13.50;;;;;;;;;;5033188;28;20410;-65
2021/06/05 12:16:45;;;;;;;18.45;12.65;;;;;;;;;;5032829;28;20045;-65
2021/06/05 12:19:11;;;;;;;20.92;13.90;;;;;;;;;;5032981;28;20067;-65
2021/06/05 12:21:38;;;;;;;19.75;13.65;;;;;;;;;;5032924;28;20405;-65
2021/06/05 12:24:35;;;;;;;17.25;11.98;;;;;;;;;;5033010;28;20021;-65
2021/06/05 12:27:02;;;;;;;17.55;11.00;;;;;;;;;;4996417;28;20042;-65
2021/06/05 12:29:35;;;;;;;17.80;10.88;;;;;;;;;;5032604;28;20099;-65
2021/06/05 12:32:12;;;;;;;16.95;11.60;;;;;;;;;;5032645;28;20029;-65
2021/06/05 12:34:38;;;;;;;20.15;13.02;;;;;;;;;;5032627;28;20026;-65
2021/06/05 12:37:24;;;;;;;23.50;12.10;;;;;;;;;;5032442;28;20093;-65
2021/06/05 12:39:51;;;;;;;21.50;13.27;;;;;;;;;;5032585;28;20032;-65
2021/06/05 12:42:46;;;;;;;25.08;13.73;;;;;;;;;;5032265;28;20025;-64
2021/06/05 12:45:14;;;;;;;25.70;14.77;;;;;;;;;;4971016;28;20058;-64
2021/06/05 12:47:42;;;;;;;30.77;16.30;;;;;;;;;;4970171;28;20038;-64
2021/06/05 12:50:15;;;;;;;27.50;16.02;;;;;;;;;;4970218;28;20377;-65
2021/06/05 12:52:42;;;;;;;26.42;15.30;;;;;;;;;;4963615;28;20074;-66
2021/06/05 12:55:31;;;;;;;31.15;17.85;;;;;;;;;;4970382;28;20047;-65
2021/06/05 12:57:57;;;;;;;29.63;17.20;;;;;;;;;;4963949;28;20763;-66
2021/06/05 13:00:31;;;;;;;29.77;17.63;;;;;;;;;;4970861;28;20054;-65
2021/06/05 13:03:26;;;;;;;32.20;18.58;;;;;;;;;;4965479;28;20046;-65
2021/06/05 13:06:13;;;;;;;31.75;17.58;;;;;;;;;;4964695;28;20047;-65
2021/06/05 13:08:39;;;;;;;32.28;18.73;;;;;;;;;;4958637;28;20038;-65
2021/06/05 13:11:05;;;;;;;35.85;19.00;;;;;;;;;;4967469;28;20060;-65
2021/06/05 13:13:32;;;;;;;31.50;17.52;;;;;;;;;;4963469;28;20035;-65
2021/06/05 13:16:30;;;;;;;31.27;18.40;;;;;;;;;;4951246;29;20054;-65
2021/06/05 13:19:08;;;;;;;27.45;16.63;;;;;;;;;;4913316;29;20047;-65
2021/06/05 13:21:33;;;;;;;26.10;16.08;;;;;;;;;;4931523;28;20114;-65
2021/06/05 13:24:28;;;;;;;27.70;15.70;;;;;;;;;;4951586;29;20079;-65
2021/06/05 13:27:12;;;;;;;23.23;15.15;;;;;;;;;;4944454;28;20043;-65
2021/06/05 13:29:39;;;;;;;26.25;14.65;;;;;;;;;;4968623;28;20472;-64
2021/06/05 13:32:06;;;;;;;24.77;14.80;;;;;;;;;;4951026;28;20023;-64
2021/06/05 13:34:38;;;;;;;21.30;12.15;;;;;;;;;;4958201;28;20034;-64
2021/06/05 13:37:39;;;;;;;16.13;10.50;;;;;;;;;;4959113;28;20031;-64
2021/06/05 13:40:06;;;;;;;19.45;11.63;;;;;;;;;;4944736;29;20042;-64
2021/06/05 13:42:32;;;;;;;18.27;11.60;;;;;;;;;;4950753;29;20102;-65
2021/06/05 13:44:58;;;;;;;17.30;11.93;;;;;;;;;;4951126;29;20051;-65
2021/06/05 13:47:23;;;;;;;21.85;12.30;;;;;;;;;;4944502;29;20140;-65
2021/06/05 13:49:49;;;;;;;21.17;12.35;;;;;;;;;;4932157;29;20040;-65
2021/06/05 13:52:16;;;;;;;19.35;12.68;;;;;;;;;;4944104;29;20118;-65
2021/06/05 13:54:42;;;;;;;18.35;12.38;;;;;;;;;;4961921;28;20094;-65
2021/06/05 13:57:07;;;;;;;21.80;14.05;;;;;;;;;;4963474;28;20023;-65
2021/06/05 13:59:33;;;;;;;20.27;13.90;;;;;;;;;;4970377;28;20042;-65
2021/06/05 14:01:58;;;;;;;20.48;13.55;;;;;;;;;;4964405;28;20056;-65
2021/06/05 14:04:23;;;;;;;23.25;14.32;;;;;;;;;;4969923;28;20043;-65
2021/06/05 14:06:49;;;;;;;26.75;15.90;;;;;;;;;;4965908;28;20043;-66
2021/06/05 14:09:14;;;;;;;27.40;14.90;;;;;;;;;;4974063;28;20191;-66
2021/06/05 14:11:39;;;;;;;19.95;8.95;;;;;;;;;;4970333;28;20102;-66
2021/06/05 14:14:05;;;;;;;20.98;7.32;;;;;;;;;;5015831;28;20033;-66
2021/06/05 14:16:30;;;;;;;13.90;6.13;;;;;;;;;;5047696;28;20037;-66
2021/06/05 14:18:56;;;;;;;12.45;6.10;;;;;;;;;;5035135;28;20022;-66
2021/06/05 14:21:21;;;;;;;19.33;8.10;;;;;;;;;;5035120;28;20028;-65
2021/06/05 14:23:47;;;;;;;16.20;7.93;;;;;;;;;;5035071;28;20029;-65
2021/06/05 14:26:12;;;;;;;16.87;7.93;;;;;;;;;;5035088;28;20033;-65
2021/06/05 14:28:39;;;;;;;10.73;5.10;;;;;;;;;;5035245;28;20109;-64
2021/06/05 14:31:05;;;;;;;8.93;4.87;;;;;;;;;;5034992;28;20470;-64
2021/06/05 14:33:33;;;;;;;14.03;7.47;;;;;;;;;;5034909;28;20025;-64
2021/06/05 14:35:59;;;;;;;15.53;8.10;;;;;;;;;;5034840;28;20422;-64
2021/06/05 14:38:26;;;;;;;16.73;8.77;;;;;;;;;;5034807;28;20025;-64